Time;durP1;ratioP1;P1;durP2;ratioP2;P2;SDS_P1;SDS_P2;PMS_P1;PMS_P2;Temp;Humidity;BMP_temperature;BMP_pressure;BME280_temperature;BME280_humidity;BME280_pressure;Samples;Min_cycle;Max_cycle;Signal;HPM_P1;HPM_P2
2022/01/28 00:00:19;;;;;;;20.30;2.60;;;;;;;;;;5020191;28;20652;-69
2022/01/28 00:03:02;;;;;;;22.27;3.80;;;;;;;;;;5018912;28;20288;-69
2022/01/28 00:05:28;;;;;;;12.07;2.17;;;;;;;;;;5019166;28;20261;-70
2022/01/28 00:07:53;;;;;;;7.67;2.27;;;;;;;;;;5018177;28;20257;-69
2022/01/28 00:10:20;;;;;;;14.63;2.57;;;;;;;;;;5019682;28;20221;-70
2022/01/28 00:37:11;;;;;;;15.97;3.40;;;;;;;;;;5027919;28;20189;-69
2022/01/28 00:39:37;;;;;;;17.83;4.53;;;;;;;;;;5027318;28;20319;-70
2022/01/28 00:42:02;;;;;;;14.60;3.20;;;;;;;;;;5032891;28;20301;-70
2022/01/28 00:44:27;;;;;;;15.00;2.27;;;;;;;;;;5030291;28;20205;-70
2022/01/28 00:46:53;;;;;;;12.53;2.67;;;;;;;;;;5035385;28;20234;-70
2022/01/28 00:49:18;;;;;;;11.67;2.10;;;;;;;;;;5028894;28;20175;-70
2022/01/28 00:51:43;;;;;;;13.83;2.60;;;;;;;;;;5037319;28;20225;-70
2022/01/28 00:54:08;;;;;;;13.30;2.20;;;;;;;;;;5025570;28;20239;-69
2022/01/28 00:56:34;;;;;;;11.60;2.57;;;;;;;;;;5039278;28;20204;-70
2022/01/28 00:58:59;;;;;;;10.60;2.10;;;;;;;;;;5024600;28;20210;-69
2022/01/28 01:01:24;;;;;;;11.33;2.50;;;;;;;;;;5052230;22;20225;-71
2022/01/28 01:03:49;;;;;;;12.93;2.23;;;;;;;;;;5037123;28;20233;-70
2022/01/28 01:06:14;;;;;;;7.63;2.40;;;;;;;;;;5038204;28;20232;-72
2022/01/28 01:08:40;;;;;;;10.67;2.47;;;;;;;;;;5040091;28;20229;-70
2022/01/28 01:11:06;;;;;;;8.47;2.50;;;;;;;;;;5042252;28;20206;-70
2022/01/28 01:13:36;;;;;;;11.10;2.80;;;;;;;;;;5042690;28;20225;-70
2022/01/28 01:16:01;;;;;;;16.27;2.70;;;;;;;;;;5055281;28;20192;-71
2022/01/28 01:18:35;;;;;;;13.80;2.30;;;;;;;;;;5058457;28;20229;-69
2022/01/28 01:21:06;;;;;;;20.10;4.03;;;;;;;;;;5062231;28;20205;-70
2022/01/28 01:23:35;;;;;;;12.43;2.43;;;;;;;;;;5032246;28;20666;-70
2022/01/28 01:28:33;;;;;;;15.97;2.70;;;;;;;;;;5051046;28;20178;-70
2022/01/28 01:30:59;;;;;;;14.83;4.07;;;;;;;;;;5048341;28;20200;-71
2022/01/28 01:33:26;;;;;;;14.40;2.27;;;;;;;;;;5050522;28;20186;-71
2022/01/28 01:35:51;;;;;;;9.83;2.37;;;;;;;;;;5027529;28;20277;-70
2022/01/28 01:38:16;;;;;;;8.97;3.00;;;;;;;;;;5046402;28;20276;-71
2022/01/28 01:40:46;;;;;;;10.73;1.83;;;;;;;;;;5048427;28;20704;-71
2022/01/28 01:45:59;;;;;;;10.60;2.23;;;;;;;;;;5041659;28;20192;-69
2022/01/28 01:53:52;;;;;;;17.30;1.90;;;;;;;;;;5048084;28;20192;-70
2022/01/28 01:56:18;;;;;;;9.87;2.10;;;;;;;;;;5048821;28;20178;-70
2022/01/28 01:58:43;;;;;;;7.80;2.20;;;;;;;;;;5050374;28;20181;-70
2022/01/28 02:01:09;;;;;;;9.53;2.13;;;;;;;;;;5028677;28;20299;-69
2022/01/28 02:03:34;;;;;;;10.67;1.90;;;;;;;;;;5049055;28;20220;-70
2022/01/28 02:06:00;;;;;;;5.93;1.97;;;;;;;;;;5046410;28;20469;-71
2022/01/28 02:08:26;;;;;;;14.13;2.20;;;;;;;;;;5048248;28;20243;-71
2022/01/28 02:10:51;;;;;;;16.37;3.70;;;;;;;;;;5048545;28;20319;-71
2022/01/28 02:13:16;;;;;;;12.03;2.33;;;;;;;;;;5029771;28;20665;-71
2022/01/28 02:15:41;;;;;;;9.70;2.30;;;;;;;;;;5050027;28;20185;-71
2022/01/28 02:18:07;;;;;;;8.90;2.20;;;;;;;;;;5048042;28;20724;-71
2022/01/28 02:20:36;;;;;;;7.10;2.33;;;;;;;;;;5048348;28;20194;-70
2022/01/28 02:23:02;;;;;;;14.40;1.77;;;;;;;;;;5027556;28;20201;-70
2022/01/28 02:25:28;;;;;;;8.97;2.00;;;;;;;;;;5050163;28;20189;-70
2022/01/28 02:27:57;;;;;;;12.47;1.73;;;;;;;;;;5048313;28;20590;-72
2022/01/28 02:30:22;;;;;;;15.13;2.83;;;;;;;;;;5048825;28;20597;-71
2022/01/28 02:32:49;;;;;;;11.67;3.07;;;;;;;;;;5047156;28;20278;-70
2022/01/28 02:35:14;;;;;;;8.07;3.00;;;;;;;;;;5047518;28;20197;-72
2022/01/28 02:37:39;;;;;;;14.40;3.27;;;;;;;;;;5044811;28;20177;-71
2022/01/28 02:40:05;;;;;;;8.53;2.50;;;;;;;;;;5048218;28;20180;-71
2022/01/28 02:42:47;;;;;;;9.10;2.00;;;;;;;;;;5047686;28;20712;-72
2022/01/28 02:45:21;;;;;;;10.63;2.00;;;;;;;;;;5048873;28;20260;-71
2022/01/28 02:47:50;;;;;;;7.93;1.80;;;;;;;;;;5037303;28;20176;-70
2022/01/28 02:50:15;;;;;;;10.70;2.40;;;;;;;;;;5050477;28;20252;-71
2022/01/28 02:52:51;;;;;;;9.87;2.67;;;;;;;;;;5051257;28;20342;-70
2022/01/28 02:55:16;;;;;;;10.43;1.73;;;;;;;;;;5051716;28;20248;-71
2022/01/28 02:57:51;;;;;;;9.17;2.00;;;;;;;;;;5054368;28;20288;-70
2022/01/28 03:00:17;;;;;;;14.93;2.23;;;;;;;;;;5049959;28;20224;-71
2022/01/28 03:02:42;;;;;;;9.17;1.90;;;;;;;;;;5043533;28;20308;-71
2022/01/28 03:07:35;;;;;;;13.90;2.73;;;;;;;;;;5050959;28;20196;-70
2022/01/28 03:12:48;;;;;;;11.23;2.77;;;;;;;;;;5047834;28;20260;-71
2022/01/28 03:15:19;;;;;;;13.03;1.97;;;;;;;;;;5050433;28;20196;-71
2022/01/28 03:17:55;;;;;;;10.20;1.67;;;;;;;;;;5046073;28;20407;-71
2022/01/28 03:22:46;;;;;;;10.60;2.10;;;;;;;;;;5039517;28;21285;-71
2022/01/28 03:25:12;;;;;;;10.87;2.17;;;;;;;;;;5041150;28;20647;-72
2022/01/28 03:27:55;;;;;;;9.47;1.60;;;;;;;;;;5054121;28;20860;-71
2022/01/28 03:30:21;;;;;;;7.40;1.87;;;;;;;;;;5050212;28;20286;-71
2022/01/28 03:32:46;;;;;;;10.27;2.63;;;;;;;;;;5031820;28;20226;-71
2022/01/28 03:35:14;;;;;;;10.10;2.30;;;;;;;;;;5046662;28;20323;-71
2022/01/28 03:37:39;;;;;;;10.60;2.97;;;;;;;;;;5047427;28;20216;-71
2022/01/28 03:40:07;;;;;;;11.57;3.37;;;;;;;;;;5045971;28;20288;-71
2022/01/28 03:42:32;;;;;;;9.33;2.13;;;;;;;;;;5046709;28;20190;-71
2022/01/28 03:44:57;;;;;;;6.77;1.70;;;;;;;;;;5047203;28;20177;-71
2022/01/28 03:47:22;;;;;;;8.23;1.77;;;;;;;;;;5048388;28;20173;-71
2022/01/28 03:49:47;;;;;;;8.63;1.83;;;;;;;;;;5048882;28;20660;-70
2022/01/28 03:52:13;;;;;;;10.43;2.57;;;;;;;;;;5034556;28;20203;-71
2022/01/28 03:54:38;;;;;;;8.80;2.23;;;;;;;;;;5053396;28;20173;-71
2022/01/28 03:57:04;;;;;;;11.93;1.80;;;;;;;;;;5047323;28;20269;-70
2022/01/28 03:59:29;;;;;;;7.83;1.73;;;;;;;;;;5032103;28;20177;-71
2022/01/28 04:01:55;;;;;;;5.90;1.57;;;;;;;;;;5046657;28;20270;-72
2022/01/28 04:12:37;;;;;;;9.43;1.93;;;;;;;;;;5044221;28;20220;-71
2022/01/28 04:15:20;;;;;;;18.40;3.37;;;;;;;;;;5036452;28;20193;-70
2022/01/28 04:17:45;;;;;;;10.40;2.10;;;;;;;;;;5056348;28;20174;-71
2022/01/28 04:20:10;;;;;;;8.87;1.90;;;;;;;;;;5046855;28;20178;-71
2022/01/28 04:22:35;;;;;;;8.37;2.33;;;;;;;;;;5042664;28;20208;-71
2022/01/28 04:25:01;;;;;;;13.83;2.67;;;;;;;;;;5039905;28;20166;-72
2022/01/28 04:27:26;;;;;;;10.97;1.77;;;;;;;;;;5027104;28;20182;-71
2022/01/28 04:29:52;;;;;;;6.80;1.40;;;;;;;;;;5047438;28;20659;-71
2022/01/28 04:32:18;;;;;;;9.33;2.27;;;;;;;;;;5045719;28;20205;-71
2022/01/28 04:34:44;;;;;;;14.63;2.87;;;;;;;;;;5029972;28;20177;-71
2022/01/28 04:39:48;;;;;;;9.47;1.50;;;;;;;;;;5046401;28;20200;-70
2022/01/28 04:47:38;;;;;;;11.23;1.80;;;;;;;;;;5048032;28;20185;-71
2022/01/28 04:55:37;;;;;;;5.83;1.57;;;;;;;;;;5049102;28;20185;-71
2022/01/28 05:06:04;;;;;;;11.83;2.00;;;;;;;;;;5050269;28;20670;-71
2022/01/28 05:24:25;;;;;;;12.13;2.23;;;;;;;;;;5045166;28;20220;-70
2022/01/28 05:27:00;;;;;;;12.50;2.30;;;;;;;;;;5048711;28;20591;-70
2022/01/28 05:29:25;;;;;;;13.67;2.50;;;;;;;;;;5049429;28;20524;-70
2022/01/28 05:31:51;;;;;;;13.23;2.87;;;;;;;;;;5035900;28;20194;-70
2022/01/28 05:34:17;;;;;;;11.00;2.20;;;;;;;;;;5050170;28;20182;-71
2022/01/28 05:36:42;;;;;;;12.97;2.57;;;;;;;;;;5049091;28;20244;-72
2022/01/28 05:39:07;;;;;;;15.53;2.13;;;;;;;;;;5049722;28;20186;-70
2022/01/28 05:41:33;;;;;;;6.47;2.40;;;;;;;;;;5049262;28;20224;-71
2022/01/28 05:44:00;;;;;;;9.20;2.50;;;;;;;;;;5047261;28;20193;-70
2022/01/28 05:46:28;;;;;;;11.10;2.00;;;;;;;;;;5049812;28;20178;-70
2022/01/28 05:48:53;;;;;;;11.33;1.93;;;;;;;;;;5048463;28;20258;-70
2022/01/28 05:51:18;;;;;;;13.87;2.10;;;;;;;;;;5041337;28;20682;-70
2022/01/28 05:53:43;;;;;;;12.33;2.23;;;;;;;;;;5044720;28;20178;-71
2022/01/28 05:56:09;;;;;;;14.10;3.03;;;;;;;;;;5047226;28;20639;-70
2022/01/28 05:58:34;;;;;;;9.30;2.87;;;;;;;;;;5050390;28;20582;-70
2022/01/28 06:00:59;;;;;;;17.57;2.43;;;;;;;;;;5046582;28;20213;-70
2022/01/28 06:03:24;;;;;;;8.70;1.90;;;;;;;;;;5049020;28;20201;-70
2022/01/28 06:05:49;;;;;;;12.30;4.40;;;;;;;;;;5027242;28;20222;-70
2022/01/28 06:08:15;;;;;;;9.60;3.20;;;;;;;;;;5048797;28;20178;-70
2022/01/28 06:10:40;;;;;;;13.53;2.80;;;;;;;;;;5047475;28;20205;-70
2022/01/28 06:13:05;;;;;;;11.27;2.43;;;;;;;;;;5048508;28;20273;-70
2022/01/28 06:15:31;;;;;;;7.53;2.03;;;;;;;;;;5051228;28;20182;-70
2022/01/28 06:17:56;;;;;;;12.20;2.80;;;;;;;;;;5049532;28;20210;-70
2022/01/28 06:20:21;;;;;;;15.13;2.53;;;;;;;;;;5046711;28;20300;-72
2022/01/28 06:22:47;;;;;;;12.03;3.13;;;;;;;;;;5043629;28;20213;-70
2022/01/28 06:25:16;;;;;;;10.33;3.23;;;;;;;;;;5048922;28;20211;-70
2022/01/28 06:27:42;;;;;;;10.77;3.03;;;;;;;;;;5047133;28;20238;-70
2022/01/28 06:30:07;;;;;;;8.57;2.23;;;;;;;;;;5047951;28;20699;-70
2022/01/28 06:32:33;;;;;;;13.77;3.03;;;;;;;;;;5045267;28;20193;-72
2022/01/28 06:35:00;;;;;;;8.80;2.53;;;;;;;;;;5048854;28;20201;-70
2022/01/28 06:37:25;;;;;;;9.97;2.30;;;;;;;;;;5043272;28;20257;-70
2022/01/28 06:39:50;;;;;;;9.70;2.63;;;;;;;;;;5031702;28;20204;-70
2022/01/28 06:42:16;;;;;;;7.20;2.13;;;;;;;;;;5042298;28;20194;-70
2022/01/28 06:44:41;;;;;;;6.60;2.47;;;;;;;;;;5048580;28;20209;-70
2022/01/28 06:47:10;;;;;;;9.67;2.53;;;;;;;;;;5046840;28;20272;-71
2022/01/28 06:49:35;;;;;;;9.97;3.23;;;;;;;;;;5046142;28;20177;-71
2022/01/28 06:52:00;;;;;;;15.73;2.90;;;;;;;;;;5043116;28;20339;-70
2022/01/28 06:54:26;;;;;;;11.10;2.53;;;;;;;;;;5043870;28;20185;-70
2022/01/28 06:56:51;;;;;;;11.77;3.03;;;;;;;;;;5046310;28;20181;-71
2022/01/28 06:59:17;;;;;;;12.23;2.60;;;;;;;;;;5049104;28;20200;-70
2022/01/28 07:01:42;;;;;;;8.73;2.43;;;;;;;;;;5030955;28;20241;-68
2022/01/28 07:04:07;;;;;;;8.80;2.63;;;;;;;;;;5030973;28;20233;-68
2022/01/28 07:06:32;;;;;;;8.57;2.10;;;;;;;;;;5045335;28;20232;-68
2022/01/28 07:08:58;;;;;;;5.87;2.87;;;;;;;;;;5042172;28;20659;-69
2022/01/28 07:11:23;;;;;;;10.13;2.87;;;;;;;;;;5057854;28;20212;-67
2022/01/28 07:13:48;;;;;;;10.67;3.00;;;;;;;;;;5052513;28;20213;-68
2022/01/28 07:16:13;;;;;;;11.83;2.70;;;;;;;;;;5042678;28;20181;-68
2022/01/28 07:18:38;;;;;;;12.23;2.93;;;;;;;;;;5040028;28;20181;-68
2022/01/28 07:21:03;;;;;;;9.37;2.40;;;;;;;;;;5039038;28;21783;-69
2022/01/28 07:23:29;;;;;;;7.00;3.20;;;;;;;;;;5020275;28;20340;-67
2022/01/28 07:25:54;;;;;;;12.93;2.97;;;;;;;;;;5040193;28;20218;-68
2022/01/28 07:28:22;;;;;;;9.17;2.23;;;;;;;;;;5042467;28;20936;-68
2022/01/28 07:30:47;;;;;;;7.57;2.30;;;;;;;;;;5039733;28;20315;-68
2022/01/28 07:33:12;;;;;;;8.27;2.80;;;;;;;;;;5039786;28;20193;-68
2022/01/28 07:35:38;;;;;;;13.10;2.07;;;;;;;;;;5040072;28;20188;-69
2022/01/28 07:38:03;;;;;;;14.17;3.73;;;;;;;;;;5039587;28;20223;-69
2022/01/28 07:40:28;;;;;;;14.10;2.53;;;;;;;;;;5048298;28;20188;-68
2022/01/28 07:42:53;;;;;;;9.27;2.27;;;;;;;;;;5048190;28;20199;-68
2022/01/28 07:45:19;;;;;;;13.17;2.13;;;;;;;;;;5048679;28;20655;-68
2022/01/28 07:47:44;;;;;;;8.00;2.03;;;;;;;;;;5047221;28;20204;-67
2022/01/28 07:50:10;;;;;;;9.17;3.03;;;;;;;;;;5047749;28;20223;-68
2022/01/28 07:52:36;;;;;;;9.13;2.03;;;;;;;;;;5043611;28;20558;-68
2022/01/28 07:55:02;;;;;;;16.07;3.93;;;;;;;;;;5047282;28;20191;-70
2022/01/28 07:57:27;;;;;;;11.03;2.87;;;;;;;;;;5042352;28;20181;-68
2022/01/28 07:59:52;;;;;;;12.80;2.20;;;;;;;;;;5040267;28;20641;-68
2022/01/28 08:02:17;;;;;;;11.87;2.43;;;;;;;;;;5040895;28;20282;-68
2022/01/28 08:04:42;;;;;;;14.40;2.30;;;;;;;;;;5039703;28;20300;-68
2022/01/28 08:07:08;;;;;;;23.23;3.10;;;;;;;;;;5040165;28;20177;-68
2022/01/28 08:09:33;;;;;;;6.40;2.43;;;;;;;;;;5046642;28;20224;-69
2022/01/28 08:11:58;;;;;;;13.50;2.63;;;;;;;;;;5039973;28;20246;-68
2022/01/28 08:14:24;;;;;;;12.60;3.83;;;;;;;;;;5040300;28;20261;-68
2022/01/28 08:16:49;;;;;;;13.00;2.67;;;;;;;;;;5041285;28;20200;-68
2022/01/28 08:19:14;;;;;;;6.00;2.10;;;;;;;;;;5041682;28;20201;-68
2022/01/28 08:21:39;;;;;;;13.10;2.67;;;;;;;;;;5041450;28;20197;-68
2022/01/28 08:24:05;;;;;;;10.07;2.87;;;;;;;;;;5039751;28;20323;-68
2022/01/28 08:26:30;;;;;;;11.70;3.27;;;;;;;;;;5040199;28;20201;-68
2022/01/28 08:28:55;;;;;;;14.63;3.53;;;;;;;;;;5038144;28;20551;-68
2022/01/28 08:31:20;;;;;;;15.83;2.77;;;;;;;;;;5045984;28;20564;-68
2022/01/28 08:33:46;;;;;;;17.77;3.10;;;;;;;;;;5047015;28;20185;-68
2022/01/28 08:36:11;;;;;;;15.73;2.60;;;;;;;;;;5044129;28;20178;-68
2022/01/28 08:38:43;;;;;;;12.50;3.10;;;;;;;;;;5043089;28;20209;-68
2022/01/28 08:41:11;;;;;;;11.10;2.50;;;;;;;;;;5048534;28;20209;-68
2022/01/28 08:43:36;;;;;;;8.60;2.33;;;;;;;;;;5045190;28;20209;-68
2022/01/28 08:46:01;;;;;;;10.33;2.70;;;;;;;;;;5047468;28;20281;-68
2022/01/28 08:48:27;;;;;;;11.90;2.77;;;;;;;;;;5046215;28;20181;-68
2022/01/28 08:50:52;;;;;;;14.07;2.70;;;;;;;;;;5026191;28;20233;-68
2022/01/28 08:53:17;;;;;;;12.87;3.63;;;;;;;;;;5043092;28;20591;-69
2022/01/28 08:55:42;;;;;;;13.60;2.87;;;;;;;;;;5037433;28;20186;-68
2022/01/28 08:58:08;;;;;;;14.37;2.40;;;;;;;;;;5038369;28;20238;-68
2022/01/28 09:00:34;;;;;;;9.70;2.43;;;;;;;;;;5037620;28;20995;-68
2022/01/28 09:02:59;;;;;;;9.87;2.50;;;;;;;;;;5036585;28;20228;-68
2022/01/28 09:05:25;;;;;;;9.13;2.70;;;;;;;;;;5023660;28;20174;-67
2022/01/28 09:07:51;;;;;;;11.00;2.57;;;;;;;;;;5020184;28;20284;-68
2022/01/28 09:10:22;;;;;;;10.77;2.33;;;;;;;;;;5038883;28;20201;-69
2022/01/28 09:13:37;;;;;;;12.30;4.37;;;;;;;;;;5037983;28;20175;-71
2022/01/28 09:15:41;;;;;;;11.93;2.23;;;;;;;;;;5026805;28;20215;-69
2022/01/28 09:18:07;;;;;;;18.63;2.87;;;;;;;;;;5039549;28;20651;-67
2022/01/28 09:20:33;;;;;;;10.93;3.10;;;;;;;;;;5039119;28;20206;-69
2022/01/28 09:22:59;;;;;;;7.13;2.73;;;;;;;;;;5037722;28;20225;-71
2022/01/28 09:25:24;;;;;;;9.70;2.50;;;;;;;;;;5036531;28;20178;-68
2022/01/28 09:27:50;;;;;;;13.77;2.57;;;;;;;;;;5044028;28;20227;-68
2022/01/28 09:30:15;;;;;;;10.87;2.27;;;;;;;;;;5037370;28;20182;-68
2022/01/28 09:32:40;;;;;;;6.27;1.70;;;;;;;;;;5028330;28;20198;-68
2022/01/28 09:35:06;;;;;;;8.63;2.13;;;;;;;;;;5028661;28;20181;-69
2022/01/28 09:37:31;;;;;;;19.87;3.43;;;;;;;;;;5025155;28;20210;-69
2022/01/28 09:39:56;;;;;;;8.03;2.33;;;;;;;;;;5029932;28;20712;-68
2022/01/28 09:42:26;;;;;;;11.93;2.93;;;;;;;;;;5038466;28;20285;-68
2022/01/28 09:44:54;;;;;;;8.80;2.40;;;;;;;;;;5048490;28;20216;-69
2022/01/28 09:47:19;;;;;;;9.87;2.10;;;;;;;;;;5049401;28;20456;-68
2022/01/28 09:49:44;;;;;;;14.80;4.27;;;;;;;;;;5048578;28;20573;-68
2022/01/28 09:52:10;;;;;;;8.10;2.77;;;;;;;;;;5051602;28;20693;-68
2022/01/28 09:54:36;;;;;;;6.87;2.20;;;;;;;;;;5030879;28;20185;-70
2022/01/28 09:57:02;;;;;;;11.23;2.40;;;;;;;;;;5047344;28;20182;-69
2022/01/28 09:59:27;;;;;;;8.10;2.37;;;;;;;;;;5047363;28;20182;-70
2022/01/28 10:01:53;;;;;;;10.40;2.40;;;;;;;;;;5051540;28;20213;-69
2022/01/28 10:04:19;;;;;;;9.23;3.10;;;;;;;;;;5051202;28;20202;-69
2022/01/28 10:06:44;;;;;;;5.78;2.42;;;;;;;;;;5053024;28;20555;-70
2022/01/28 10:09:11;;;;;;;10.40;3.30;;;;;;;;;;5054137;28;20269;-69
2022/01/28 10:11:42;;;;;;;7.60;2.28;;;;;;;;;;5052451;28;20204;-69
2022/01/28 10:14:12;;;;;;;11.57;2.53;;;;;;;;;;5037618;28;20190;-68
2022/01/28 10:16:38;;;;;;;9.63;2.15;;;;;;;;;;5028604;28;20197;-68
2022/01/28 10:19:07;;;;;;;6.60;1.90;;;;;;;;;;5033469;28;20218;-69
2022/01/28 10:21:38;;;;;;;9.40;1.95;;;;;;;;;;5031143;28;20212;-68
2022/01/28 10:24:11;;;;;;;9.02;2.22;;;;;;;;;;5029692;28;20853;-69
2022/01/28 10:26:37;;;;;;;12.00;2.45;;;;;;;;;;5032327;28;20181;-69
2022/01/28 10:29:07;;;;;;;8.77;2.00;;;;;;;;;;5013485;28;20181;-70
2022/01/28 10:31:37;;;;;;;12.90;3.45;;;;;;;;;;5014181;28;20739;-69
2022/01/28 10:34:13;;;;;;;9.48;2.13;;;;;;;;;;5011335;28;20946;-69
2022/01/28 10:36:38;;;;;;;8.85;2.00;;;;;;;;;;5027730;28;20224;-68
2022/01/28 10:39:03;;;;;;;7.25;2.08;;;;;;;;;;5031663;28;20640;-69
2022/01/28 10:41:28;;;;;;;11.10;2.30;;;;;;;;;;5030025;28;20201;-69
2022/01/28 10:43:55;;;;;;;8.35;1.60;;;;;;;;;;5030336;28;20426;-69
2022/01/28 10:46:25;;;;;;;10.13;1.73;;;;;;;;;;5028900;28;20261;-70
2022/01/28 10:48:50;;;;;;;7.10;2.47;;;;;;;;;;5031608;28;20273;-68
2022/01/28 10:51:17;;;;;;;8.70;2.28;;;;;;;;;;5029378;28;20210;-69
2022/01/28 10:53:42;;;;;;;9.52;1.65;;;;;;;;;;5029619;28;20479;-69
2022/01/28 10:56:11;;;;;;;14.20;2.85;;;;;;;;;;5034335;28;20348;-71
2022/01/28 10:58:37;;;;;;;11.35;2.30;;;;;;;;;;5031550;28;20273;-69
2022/01/28 11:01:04;;;;;;;10.40;2.05;;;;;;;;;;5029337;28;20358;-69
2022/01/28 11:03:29;;;;;;;10.93;2.10;;;;;;;;;;5029323;28;20205;-68
2022/01/28 11:05:58;;;;;;;8.57;1.75;;;;;;;;;;5029872;28;20189;-69
2022/01/28 11:08:24;;;;;;;9.73;1.93;;;;;;;;;;5028768;28;20608;-69
2022/01/28 11:10:49;;;;;;;10.40;1.88;;;;;;;;;;5029897;28;20216;-69
2022/01/28 11:13:14;;;;;;;9.18;2.65;;;;;;;;;;5029482;28;20657;-68
2022/01/28 11:15:40;;;;;;;9.82;2.42;;;;;;;;;;5030775;28;20234;-69
2022/01/28 11:18:07;;;;;;;7.03;1.85;;;;;;;;;;5030060;28;20178;-70
2022/01/28 11:20:35;;;;;;;7.73;2.13;;;;;;;;;;5027911;28;20196;-69
2022/01/28 11:23:10;;;;;;;14.38;2.28;;;;;;;;;;5012332;28;20634;-68
2022/01/28 11:25:54;;;;;;;11.73;2.40;;;;;;;;;;5030945;28;20670;-68
2022/01/28 11:28:19;;;;;;;9.00;1.90;;;;;;;;;;5031523;28;20254;-69
2022/01/28 11:30:48;;;;;;;8.93;1.97;;;;;;;;;;5029284;28;20210;-68
2022/01/28 11:33:15;;;;;;;5.13;1.70;;;;;;;;;;5027615;28;20194;-69
2022/01/28 11:35:57;;;;;;;8.43;2.67;;;;;;;;;;5027632;28;20260;-68
2022/01/28 11:38:29;;;;;;;4.47;1.30;;;;;;;;;;5026021;28;20239;-69
2022/01/28 11:40:56;;;;;;;5.47;1.83;;;;;;;;;;5026784;28;20638;-70
2022/01/28 11:43:23;;;;;;;11.23;1.95;;;;;;;;;;5030286;28;20205;-68
2022/01/28 11:46:03;;;;;;;10.65;2.20;;;;;;;;;;5026711;28;20481;-69
2022/01/28 11:48:48;;;;;;;5.88;1.42;;;;;;;;;;5029407;28;20239;-70
2022/01/28 11:51:16;;;;;;;7.75;1.55;;;;;;;;;;5029747;28;20201;-69
2022/01/28 11:53:55;;;;;;;9.53;1.60;;;;;;;;;;5027844;28;21128;-68
2022/01/28 11:56:27;;;;;;;10.60;1.60;;;;;;;;;;5037463;28;20280;-69
2022/01/28 11:59:21;;;;;;;4.67;1.30;;;;;;;;;;5010366;28;20276;-70
2022/01/28 12:01:49;;;;;;;8.93;1.53;;;;;;;;;;5014076;28;20617;-69
2022/01/28 12:04:24;;;;;;;7.30;2.00;;;;;;;;;;5026152;28;20649;-70
2022/01/28 12:06:53;;;;;;;11.80;1.63;;;;;;;;;;5032535;28;20179;-68
2022/01/28 12:09:19;;;;;;;5.83;1.83;;;;;;;;;;5030107;28;20516;-68
2022/01/28 12:11:44;;;;;;;4.67;1.53;;;;;;;;;;5029257;28;20582;-68
2022/01/28 12:14:13;;;;;;;11.93;1.97;;;;;;;;;;5028743;28;20213;-68
2022/01/28 12:16:42;;;;;;;6.97;1.90;;;;;;;;;;5010008;28;20705;-71
2022/01/28 12:19:14;;;;;;;11.87;2.67;;;;;;;;;;5027730;28;20209;-66
2022/01/28 12:21:40;;;;;;;9.68;1.98;;;;;;;;;;5026241;28;20751;-68
2022/01/28 12:24:20;;;;;;;7.65;1.60;;;;;;;;;;5028057;28;20205;-68
2022/01/28 12:26:56;;;;;;;7.28;2.40;;;;;;;;;;5029643;28;20232;-69
2022/01/28 12:29:28;;;;;;;5.43;1.63;;;;;;;;;;5028500;28;20180;-67
2022/01/28 12:31:55;;;;;;;6.45;1.60;;;;;;;;;;5025984;28;20345;-69
2022/01/28 12:34:20;;;;;;;8.38;2.13;;;;;;;;;;5031587;28;20181;-68
2022/01/28 12:36:46;;;;;;;7.80;2.25;;;;;;;;;;5028438;28;20177;-67
2022/01/28 12:39:31;;;;;;;9.50;2.83;;;;;;;;;;5028487;28;20204;-68
2022/01/28 12:42:02;;;;;;;12.67;2.53;;;;;;;;;;5010749;28;20430;-68
2022/01/28 12:44:29;;;;;;;11.63;3.10;;;;;;;;;;5011170;28;20259;-68
2022/01/28 12:46:57;;;;;;;7.33;2.30;;;;;;;;;;5025448;28;20392;-68
2022/01/28 12:49:23;;;;;;;6.27;2.60;;;;;;;;;;5028780;28;20187;-68
2022/01/28 12:51:52;;;;;;;7.67;2.33;;;;;;;;;;5029528;28;20257;-69
2022/01/28 12:54:27;;;;;;;10.10;2.73;;;;;;;;;;5031733;28;20204;-67
2022/01/28 12:56:53;;;;;;;10.57;3.20;;;;;;;;;;5040033;28;20204;-68
2022/01/28 12:59:18;;;;;;;7.33;2.77;;;;;;;;;;5039154;28;20188;-67
2022/01/28 13:01:50;;;;;;;10.93;2.63;;;;;;;;;;5020034;22;20233;-70
2022/01/28 13:04:20;;;;;;;7.90;3.53;;;;;;;;;;5008878;28;20234;-71
2022/01/28 13:09:11;;;;;;;8.10;2.70;;;;;;;;;;5012887;28;20174;-72
2022/01/28 13:11:42;;;;;;;7.17;2.83;;;;;;;;;;5010148;28;20194;-70
2022/01/28 13:14:07;;;;;;;9.73;2.57;;;;;;;;;;5015670;28;20431;-70
2022/01/28 13:16:34;;;;;;;11.90;3.20;;;;;;;;;;5019040;28;20191;-70
2022/01/28 13:18:59;;;;;;;8.77;4.00;;;;;;;;;;5016794;28;20190;-70
2022/01/28 13:21:25;;;;;;;9.20;2.97;;;;;;;;;;5018010;28;20198;-70
2022/01/28 13:24:22;;;;;;;10.57;3.27;;;;;;;;;;5035448;28;20209;-70
2022/01/28 13:26:54;;;;;;;10.57;2.90;;;;;;;;;;4986123;28;20428;-70
2022/01/28 13:29:53;;;;;;;11.07;3.87;;;;;;;;;;5017584;28;20935;-70
2022/01/28 13:32:25;;;;;;;14.83;4.43;;;;;;;;;;4969982;28;20249;-70
2022/01/28 13:34:55;;;;;;;8.83;3.93;;;;;;;;;;5005768;28;20193;-71
2022/01/28 13:37:30;;;;;;;9.23;3.90;;;;;;;;;;5013212;28;20182;-70
2022/01/28 13:39:55;;;;;;;11.30;3.67;;;;;;;;;;5017778;28;20186;-70
2022/01/28 13:42:23;;;;;;;10.77;3.53;;;;;;;;;;5016158;28;20345;-70
2022/01/28 13:44:49;;;;;;;10.00;3.50;;;;;;;;;;5017426;28;20707;-70
2022/01/28 13:47:16;;;;;;;9.50;3.90;;;;;;;;;;5017173;28;20177;-70
2022/01/28 13:49:41;;;;;;;11.03;4.30;;;;;;;;;;5017396;28;20836;-70
2022/01/28 13:52:10;;;;;;;14.33;3.70;;;;;;;;;;5015282;28;20297;-71
2022/01/28 13:54:35;;;;;;;11.30;3.77;;;;;;;;;;5017914;28;20204;-71
2022/01/28 13:57:01;;;;;;;13.73;3.70;;;;;;;;;;5023846;28;20655;-70
2022/01/28 13:59:29;;;;;;;10.37;2.80;;;;;;;;;;5016304;28;20291;-70
2022/01/28 14:01:58;;;;;;;13.97;3.97;;;;;;;;;;5015829;28;20592;-71
2022/01/28 14:04:24;;;;;;;9.00;3.10;;;;;;;;;;5015426;28;20267;-71
2022/01/28 14:06:49;;;;;;;8.27;3.07;;;;;;;;;;5015578;28;20182;-71
2022/01/28 14:09:21;;;;;;;12.10;3.43;;;;;;;;;;5018115;28;20190;-71
2022/01/28 14:11:49;;;;;;;11.77;3.60;;;;;;;;;;5019285;28;20721;-71
2022/01/28 14:14:19;;;;;;;9.67;2.93;;;;;;;;;;5018404;28;20581;-70
2022/01/28 14:16:46;;;;;;;11.00;3.20;;;;;;;;;;4998521;28;20572;-70
2022/01/28 14:19:11;;;;;;;13.03;3.80;;;;;;;;;;5015237;28;21849;-70
2022/01/28 14:21:38;;;;;;;10.20;2.67;;;;;;;;;;5017845;28;20625;-71
2022/01/28 14:24:03;;;;;;;12.47;3.93;;;;;;;;;;5017798;28;20285;-71
2022/01/28 14:26:28;;;;;;;12.00;3.43;;;;;;;;;;5018129;28;20228;-71
2022/01/28 14:31:22;;;;;;;10.13;3.07;;;;;;;;;;5015075;28;20257;-71
2022/01/28 14:33:49;;;;;;;9.33;2.67;;;;;;;;;;5015086;28;20194;-71
2022/01/28 14:36:14;;;;;;;8.50;2.87;;;;;;;;;;5018015;28;20189;-71
2022/01/28 14:38:39;;;;;;;8.37;3.07;;;;;;;;;;5016155;28;20186;-71
2022/01/28 14:41:05;;;;;;;10.13;2.70;;;;;;;;;;5016078;28;20197;-71
2022/01/28 14:43:30;;;;;;;6.00;2.63;;;;;;;;;;5012389;28;20202;-71
2022/01/28 14:45:55;;;;;;;5.97;3.03;;;;;;;;;;5019350;28;20174;-71
2022/01/28 14:48:22;;;;;;;6.63;2.73;;;;;;;;;;5017057;28;20193;-71
2022/01/28 14:50:48;;;;;;;7.80;2.30;;;;;;;;;;5000264;28;20182;-71
2022/01/28 14:53:13;;;;;;;9.93;3.33;;;;;;;;;;5016004;28;20192;-71
2022/01/28 14:55:40;;;;;;;6.00;3.57;;;;;;;;;;5015481;28;20182;-71
2022/01/28 14:58:06;;;;;;;7.10;3.23;;;;;;;;;;5003206;28;20639;-71
2022/01/28 15:00:31;;;;;;;6.73;2.30;;;;;;;;;;5004448;28;20297;-70
2022/01/28 15:02:56;;;;;;;9.13;2.50;;;;;;;;;;5015994;28;20276;-71
2022/01/28 15:05:22;;;;;;;7.07;2.93;;;;;;;;;;5013914;28;20348;-70
2022/01/28 15:07:47;;;;;;;5.57;2.00;;;;;;;;;;5015085;28;20467;-71
2022/01/28 15:10:13;;;;;;;10.90;2.00;;;;;;;;;;5015967;28;20186;-69
2022/01/28 15:12:40;;;;;;;9.30;2.13;;;;;;;;;;5014730;28;20252;-69
2022/01/28 15:15:05;;;;;;;6.97;2.87;;;;;;;;;;5014696;28;20228;-69
2022/01/28 15:17:31;;;;;;;6.87;2.13;;;;;;;;;;5014189;28;22364;-70
2022/01/28 15:19:58;;;;;;;8.47;2.27;;;;;;;;;;5013604;28;20300;-70
2022/01/28 15:22:23;;;;;;;6.53;2.43;;;;;;;;;;5014681;28;20683;-70
2022/01/28 15:24:48;;;;;;;4.80;1.70;;;;;;;;;;5016673;28;20198;-70
2022/01/28 15:27:14;;;;;;;6.93;2.30;;;;;;;;;;5016122;28;20174;-70
2022/01/28 15:35:11;;;;;;;8.67;2.57;;;;;;;;;;5016111;28;20225;-70
2022/01/28 15:37:36;;;;;;;8.63;2.90;;;;;;;;;;5015268;28;20186;-70
2022/01/28 15:40:02;;;;;;;6.10;2.70;;;;;;;;;;5016760;28;20227;-70
2022/01/28 15:42:27;;;;;;;10.00;3.80;;;;;;;;;;5004605;28;20622;-70
2022/01/28 15:44:52;;;;;;;16.50;4.07;;;;;;;;;;5017415;28;20232;-70
2022/01/28 15:47:17;;;;;;;10.90;3.77;;;;;;;;;;5016125;28;20233;-70
2022/01/28 15:49:43;;;;;;;10.97;3.97;;;;;;;;;;5014438;28;20174;-70
2022/01/28 15:52:11;;;;;;;8.17;2.97;;;;;;;;;;5005774;28;20284;-70
2022/01/28 15:54:37;;;;;;;7.17;3.30;;;;;;;;;;5015423;28;20178;-70
2022/01/28 15:57:02;;;;;;;9.27;3.03;;;;;;;;;;5019359;28;20211;-70
2022/01/28 15:59:28;;;;;;;11.30;3.27;;;;;;;;;;5001868;28;20280;-70
2022/01/28 16:01:53;;;;;;;8.97;3.20;;;;;;;;;;5013930;28;20225;-71
2022/01/28 16:04:18;;;;;;;9.67;4.00;;;;;;;;;;5015930;28;20198;-71
2022/01/28 16:06:44;;;;;;;11.23;3.90;;;;;;;;;;5015455;28;20174;-71
2022/01/28 16:09:09;;;;;;;7.83;4.47;;;;;;;;;;5017169;28;20182;-69
2022/01/28 16:11:46;;;;;;;12.50;7.50;;;;;;;;;;5015062;28;20307;-69
2022/01/28 16:19:24;;;;;;;20.53;12.20;;;;;;;;;;5014508;28;20498;-70